Time;durP1;ratioP1;P1;durP2;ratioP2;P2;SDS_P1;SDS_P2;PMS_P1;PMS_P2;Temp;Humidity;BMP_temperature;BMP_pressure;BME280_temperature;BME280_humidity;BME280_pressure;Samples;Min_cycle;Max_cycle;Signal;HPM_P1;HPM_P2
2021/10/30 00:00:23;;;;;;;238.37;224.27;;;;;;;;;;5052344;28;20927;-65
2021/10/30 00:02:52;;;;;;;236.57;221.97;;;;;;;;;;5051180;28;20476;-66
2021/10/30 00:05:19;;;;;;;247.97;233.27;;;;;;;;;;5051019;28;20474;-67
2021/10/30 00:07:46;;;;;;;234.60;220.70;;;;;;;;;;5050342;28;20545;-66
2021/10/30 00:10:14;;;;;;;237.20;223.10;;;;;;;;;;5052492;28;20456;-65
2021/10/30 00:12:41;;;;;;;240.50;225.80;;;;;;;;;;5052000;28;20452;-67
2021/10/30 00:15:08;;;;;;;236.53;222.47;;;;;;;;;;5052345;28;20475;-67
2021/10/30 00:17:36;;;;;;;241.33;227.00;;;;;;;;;;5051485;28;20480;-66
2021/10/30 00:20:04;;;;;;;233.80;219.90;;;;;;;;;;5051197;28;20479;-71
2021/10/30 00:22:32;;;;;;;245.90;231.50;;;;;;;;;;5050046;28;20975;-67
2021/10/30 00:24:59;;;;;;;247.50;232.97;;;;;;;;;;5051900;28;20509;-68
2021/10/30 00:27:26;;;;;;;224.70;210.70;;;;;;;;;;5051223;28;20502;-67
2021/10/30 00:29:53;;;;;;;240.43;226.20;;;;;;;;;;5049819;28;20456;-67
2021/10/30 00:32:20;;;;;;;229.33;215.50;;;;;;;;;;5051199;28;20841;-68
2021/10/30 00:34:47;;;;;;;231.57;217.80;;;;;;;;;;5051138;28;20470;-69
2021/10/30 00:37:15;;;;;;;249.13;234.63;;;;;;;;;;5051448;28;20475;-67
2021/10/30 00:39:43;;;;;;;247.50;232.90;;;;;;;;;;5051437;28;20486;-68
2021/10/30 00:42:11;;;;;;;262.00;246.70;;;;;;;;;;5051251;28;20447;-69
2021/10/30 00:44:38;;;;;;;257.70;242.70;;;;;;;;;;5048485;28;20678;-70
2021/10/30 00:47:05;;;;;;;266.33;251.13;;;;;;;;;;5049387;28;20472;-68
2021/10/30 00:49:34;;;;;;;258.17;243.40;;;;;;;;;;5049762;28;20974;-67
2021/10/30 00:52:02;;;;;;;266.97;251.47;;;;;;;;;;5052036;28;20460;-64
2021/10/30 00:54:32;;;;;;;272.07;256.90;;;;;;;;;;5050183;28;20467;-64
2021/10/30 00:57:00;;;;;;;261.53;246.73;;;;;;;;;;5051131;28;20458;-65
2021/10/30 00:59:27;;;;;;;259.87;244.57;;;;;;;;;;5049721;28;20484;-64
2021/10/30 01:01:54;;;;;;;260.90;246.07;;;;;;;;;;5041271;28;20440;-66
2021/10/30 01:04:22;;;;;;;262.87;247.97;;;;;;;;;;5049382;28;21340;-63
2021/10/30 01:06:50;;;;;;;267.23;252.33;;;;;;;;;;5050737;28;20454;-66
2021/10/30 01:09:18;;;;;;;254.77;240.13;;;;;;;;;;5050144;28;20994;-63
2021/10/30 01:11:47;;;;;;;253.33;238.63;;;;;;;;;;5050504;28;20860;-64
2021/10/30 01:14:15;;;;;;;258.00;243.00;;;;;;;;;;5031634;28;20444;-63
2021/10/30 01:16:42;;;;;;;245.40;230.80;;;;;;;;;;5033930;28;20578;-63
2021/10/30 01:19:09;;;;;;;234.23;220.07;;;;;;;;;;5050994;28;20575;-64
2021/10/30 01:21:38;;;;;;;249.77;235.17;;;;;;;;;;5050126;28;20453;-63
2021/10/30 01:24:07;;;;;;;239.30;225.07;;;;;;;;;;5049971;28;20502;-64
2021/10/30 01:26:34;;;;;;;248.13;233.73;;;;;;;;;;5050429;28;20443;-63
2021/10/30 01:29:02;;;;;;;247.80;233.60;;;;;;;;;;5048423;28;20475;-65
2021/10/30 01:31:29;;;;;;;242.80;228.57;;;;;;;;;;5050841;28;20472;-66
2021/10/30 01:33:56;;;;;;;245.93;231.63;;;;;;;;;;5050452;28;20456;-63
2021/10/30 01:36:24;;;;;;;255.27;240.33;;;;;;;;;;5051216;28;20909;-63
2021/10/30 01:38:53;;;;;;;260.53;245.63;;;;;;;;;;5050269;28;20475;-66
2021/10/30 01:41:24;;;;;;;258.30;243.00;;;;;;;;;;5051263;28;20447;-64
2021/10/30 01:43:51;;;;;;;260.93;245.50;;;;;;;;;;5037069;28;20480;-66
2021/10/30 01:46:18;;;;;;;260.77;245.87;;;;;;;;;;5049943;28;21011;-63
2021/10/30 01:48:46;;;;;;;262.83;247.83;;;;;;;;;;5050339;28;21033;-64
2021/10/30 01:51:13;;;;;;;260.83;245.70;;;;;;;;;;5049683;28;20466;-63
2021/10/30 01:53:40;;;;;;;264.07;248.70;;;;;;;;;;5054969;28;20446;-63
2021/10/30 01:56:09;;;;;;;256.27;241.27;;;;;;;;;;5041307;28;20539;-68
2021/10/30 01:58:37;;;;;;;267.57;252.30;;;;;;;;;;5034698;28;20491;-62
2021/10/30 02:01:04;;;;;;;262.07;247.03;;;;;;;;;;5051708;28;20464;-63
2021/10/30 02:03:33;;;;;;;253.90;239.20;;;;;;;;;;5053568;28;20480;-65
2021/10/30 02:06:00;;;;;;;262.70;247.50;;;;;;;;;;5053540;28;20529;-65
2021/10/30 02:08:27;;;;;;;264.87;249.67;;;;;;;;;;5054518;28;20491;-64
2021/10/30 02:10:54;;;;;;;268.13;252.83;;;;;;;;;;5054927;28;20452;-63
2021/10/30 02:13:23;;;;;;;262.60;247.70;;;;;;;;;;5054215;28;20462;-63
2021/10/30 02:15:50;;;;;;;258.83;244.00;;;;;;;;;;5054348;28;20447;-65
2021/10/30 02:18:17;;;;;;;265.37;250.37;;;;;;;;;;5053877;28;20866;-63
2021/10/30 02:20:45;;;;;;;263.53;248.63;;;;;;;;;;5053155;28;20890;-63
2021/10/30 02:23:12;;;;;;;255.73;241.30;;;;;;;;;;5053829;28;20529;-63
2021/10/30 02:25:39;;;;;;;262.47;247.50;;;;;;;;;;5053716;28;20549;-64
2021/10/30 02:28:07;;;;;;;262.60;247.70;;;;;;;;;;5051774;28;20489;-63
2021/10/30 02:30:35;;;;;;;269.93;254.30;;;;;;;;;;5054107;28;20466;-64
2021/10/30 02:33:02;;;;;;;276.40;260.80;;;;;;;;;;5053310;28;20466;-63
2021/10/30 02:35:30;;;;;;;271.27;255.70;;;;;;;;;;5053634;28;20452;-63
2021/10/30 02:37:57;;;;;;;271.23;256.10;;;;;;;;;;5054383;28;20474;-65
2021/10/30 02:40:24;;;;;;;268.00;252.70;;;;;;;;;;5053558;28;20459;-63
2021/10/30 02:42:52;;;;;;;274.57;259.07;;;;;;;;;;5053456;28;20834;-62
2021/10/30 02:45:19;;;;;;;268.07;252.57;;;;;;;;;;5053161;28;20470;-64
2021/10/30 02:47:47;;;;;;;261.90;246.77;;;;;;;;;;5054153;28;20474;-63
2021/10/30 02:50:15;;;;;;;266.37;251.30;;;;;;;;;;5053257;28;20463;-66
2021/10/30 02:52:42;;;;;;;249.43;234.93;;;;;;;;;;5054207;28;20459;-63
2021/10/30 02:55:10;;;;;;;253.77;239.37;;;;;;;;;;5052634;28;20839;-65
2021/10/30 02:57:37;;;;;;;235.03;221.37;;;;;;;;;;5053293;28;20578;-66
2021/10/30 03:00:05;;;;;;;233.73;220.23;;;;;;;;;;5054126;28;20452;-63
2021/10/30 03:02:32;;;;;;;218.00;205.00;;;;;;;;;;5053161;28;20472;-63
2021/10/30 03:05:00;;;;;;;223.60;210.70;;;;;;;;;;5053433;28;20490;-63
2021/10/30 03:07:27;;;;;;;198.50;186.13;;;;;;;;;;5050792;28;20507;-63
2021/10/30 03:09:54;;;;;;;195.10;183.10;;;;;;;;;;5053866;28;20447;-63
2021/10/30 03:12:21;;;;;;;194.53;182.13;;;;;;;;;;5052741;28;20463;-64
2021/10/30 03:14:49;;;;;;;197.33;185.23;;;;;;;;;;5053316;28;20452;-63
2021/10/30 03:17:16;;;;;;;200.43;188.43;;;;;;;;;;5051860;28;20463;-64
2021/10/30 03:19:43;;;;;;;181.57;170.10;;;;;;;;;;5052988;28;20967;-62
2021/10/30 03:22:11;;;;;;;202.93;190.93;;;;;;;;;;5053116;28;20468;-63
2021/10/30 03:24:42;;;;;;;184.60;172.47;;;;;;;;;;5053424;28;20463;-63
2021/10/30 03:27:09;;;;;;;175.70;164.47;;;;;;;;;;5051427;28;20558;-63
2021/10/30 03:29:36;;;;;;;178.87;167.67;;;;;;;;;;5052980;28;20475;-63
2021/10/30 03:32:03;;;;;;;169.77;158.73;;;;;;;;;;5050496;28;20490;-62
2021/10/30 03:34:30;;;;;;;168.90;158.20;;;;;;;;;;5051625;28;20549;-63
2021/10/30 03:36:57;;;;;;;172.60;161.70;;;;;;;;;;5051621;28;20478;-63
2021/10/30 03:39:26;;;;;;;167.90;157.20;;;;;;;;;;5053404;28;20443;-63
2021/10/30 03:41:53;;;;;;;171.77;160.87;;;;;;;;;;5052432;28;20971;-64
2021/10/30 03:44:20;;;;;;;174.73;163.73;;;;;;;;;;5052740;28;20483;-66
2021/10/30 03:46:47;;;;;;;173.53;162.43;;;;;;;;;;5052434;28;20476;-64
2021/10/30 03:49:14;;;;;;;170.47;159.43;;;;;;;;;;5052198;28;20463;-65
2021/10/30 03:51:42;;;;;;;178.50;167.10;;;;;;;;;;5053059;28;20463;-63
2021/10/30 03:54:09;;;;;;;176.67;165.50;;;;;;;;;;5052769;28;20483;-64
2021/10/30 03:56:38;;;;;;;175.53;164.27;;;;;;;;;;5051471;28;20494;-66
2021/10/30 03:59:05;;;;;;;183.47;171.87;;;;;;;;;;5052541;28;20566;-64
2021/10/30 04:01:32;;;;;;;179.47;168.00;;;;;;;;;;5051528;28;20554;-64
2021/10/30 04:03:59;;;;;;;204.03;191.97;;;;;;;;;;5050651;28;20492;-67
2021/10/30 04:06:26;;;;;;;193.10;181.30;;;;;;;;;;5052689;28;20454;-66
2021/10/30 04:08:53;;;;;;;177.70;166.60;;;;;;;;;;5051190;28;20859;-65
2021/10/30 04:11:20;;;;;;;178.33;167.03;;;;;;;;;;5052939;28;20454;-64
2021/10/30 04:13:49;;;;;;;195.97;184.13;;;;;;;;;;5051727;28;20977;-63
2021/10/30 04:16:16;;;;;;;175.30;164.10;;;;;;;;;;5051848;28;20468;-63
2021/10/30 04:18:44;;;;;;;188.30;176.80;;;;;;;;;;5051999;28;20541;-63
2021/10/30 04:21:11;;;;;;;175.03;163.93;;;;;;;;;;5051823;28;20486;-65
2021/10/30 04:23:39;;;;;;;175.90;164.50;;;;;;;;;;5051816;28;20488;-63
2021/10/30 04:26:06;;;;;;;180.43;168.90;;;;;;;;;;5051088;28;20562;-63
2021/10/30 04:28:33;;;;;;;202.23;190.13;;;;;;;;;;5051851;28;20492;-66
2021/10/30 04:31:04;;;;;;;200.17;187.67;;;;;;;;;;5050328;28;20470;-64
2021/10/30 04:33:32;;;;;;;202.07;189.67;;;;;;;;;;5046075;28;20462;-64
2021/10/30 04:36:01;;;;;;;212.23;199.40;;;;;;;;;;5050885;28;20839;-66
2021/10/30 04:38:29;;;;;;;220.53;207.30;;;;;;;;;;5052009;28;20468;-63
2021/10/30 04:40:56;;;;;;;223.77;210.13;;;;;;;;;;5051136;28;20472;-64
2021/10/30 04:43:23;;;;;;;221.33;208.13;;;;;;;;;;5051955;28;20985;-64
2021/10/30 04:45:50;;;;;;;242.23;227.77;;;;;;;;;;5049885;28;20555;-64
2021/10/30 04:48:19;;;;;;;235.10;220.93;;;;;;;;;;5050803;28;21027;-65
2021/10/30 04:50:46;;;;;;;239.07;224.67;;;;;;;;;;5050717;28;21035;-64
2021/10/30 04:53:13;;;;;;;235.83;221.13;;;;;;;;;;5052131;28;20444;-63
2021/10/30 04:55:41;;;;;;;242.23;227.13;;;;;;;;;;5055131;28;20521;-62
2021/10/30 04:58:08;;;;;;;244.97;229.97;;;;;;;;;;5037821;28;20503;-63
2021/10/30 05:00:35;;;;;;;255.40;240.43;;;;;;;;;;5038239;28;20985;-64
2021/10/30 05:03:02;;;;;;;230.77;216.67;;;;;;;;;;5052165;28;20547;-64
2021/10/30 05:05:30;;;;;;;227.57;213.47;;;;;;;;;;5050173;28;20845;-63
2021/10/30 05:07:58;;;;;;;226.73;212.73;;;;;;;;;;5050514;28;20487;-63
2021/10/30 05:10:25;;;;;;;220.90;207.20;;;;;;;;;;5050488;28;20463;-63
2021/10/30 05:12:52;;;;;;;211.40;198.10;;;;;;;;;;5051944;28;20824;-66
2021/10/30 05:15:19;;;;;;;215.93;202.50;;;;;;;;;;5050150;28;20460;-64
2021/10/30 05:17:46;;;;;;;222.50;208.63;;;;;;;;;;5051548;28;20837;-64
2021/10/30 05:20:13;;;;;;;215.27;201.70;;;;;;;;;;5048620;28;20463;-65
2021/10/30 05:22:42;;;;;;;206.80;193.50;;;;;;;;;;5051702;28;20447;-64
2021/10/30 05:25:09;;;;;;;226.10;212.27;;;;;;;;;;5050527;28;20510;-63
2021/10/30 05:27:36;;;;;;;216.13;202.47;;;;;;;;;;5050559;28;20865;-65
2021/10/30 05:30:04;;;;;;;211.80;198.43;;;;;;;;;;5050877;28;20444;-63
2021/10/30 05:32:31;;;;;;;216.80;202.80;;;;;;;;;;5049331;28;20814;-62
2021/10/30 05:34:58;;;;;;;215.57;202.07;;;;;;;;;;5049924;28;20466;-67
2021/10/30 05:37:25;;;;;;;216.33;202.93;;;;;;;;;;5054543;28;20468;-63
2021/10/30 05:39:53;;;;;;;229.57;215.77;;;;;;;;;;5055850;28;20447;-62
2021/10/30 05:42:21;;;;;;;230.00;215.70;;;;;;;;;;5054046;28;20970;-63
2021/10/30 05:44:48;;;;;;;217.50;203.83;;;;;;;;;;5053852;28;20999;-63
2021/10/30 05:47:15;;;;;;;216.57;202.57;;;;;;;;;;5054452;28;20833;-64
2021/10/30 05:49:44;;;;;;;223.43;209.63;;;;;;;;;;5054076;28;20444;-66
2021/10/30 05:52:12;;;;;;;217.83;204.03;;;;;;;;;;5046039;28;20472;-65
2021/10/30 05:54:39;;;;;;;212.10;198.80;;;;;;;;;;5035934;28;20448;-66
2021/10/30 05:57:10;;;;;;;223.63;210.00;;;;;;;;;;5054561;28;20467;-63
2021/10/30 05:59:37;;;;;;;219.57;205.50;;;;;;;;;;5053629;28;20774;-64
2021/10/30 06:02:05;;;;;;;155.97;144.90;;;;;;;;;;5053395;28;20974;-64
2021/10/30 06:04:32;;;;;;;127.83;118.43;;;;;;;;;;5051530;28;20483;-62
2021/10/30 06:07:00;;;;;;;154.30;143.00;;;;;;;;;;5054147;28;20826;-62
2021/10/30 06:09:27;;;;;;;256.70;238.10;;;;;;;;;;5055264;28;20447;-62
2021/10/30 06:11:54;;;;;;;460.93;433.70;;;;;;;;;;5053981;28;20458;-62
2021/10/30 06:14:23;;;;;;;577.73;545.17;;;;;;;;;;5043409;28;20471;-63
2021/10/30 06:16:50;;;;;;;582.50;548.20;;;;;;;;;;5043890;28;20802;-61
2021/10/30 06:19:17;;;;;;;459.63;427.23;;;;;;;;;;5055062;28;20476;-62
2021/10/30 06:21:44;;;;;;;415.97;386.27;;;;;;;;;;5054579;28;20455;-61
2021/10/30 06:24:11;;;;;;;366.93;340.33;;;;;;;;;;5054497;28;21207;-63
2021/10/30 06:26:39;;;;;;;381.40;356.50;;;;;;;;;;5053897;28;20458;-65
2021/10/30 06:29:06;;;;;;;379.60;357.00;;;;;;;;;;5043736;28;20483;-63
2021/10/30 06:31:34;;;;;;;371.50;350.50;;;;;;;;;;5034664;28;20954;-63
2021/10/30 06:34:01;;;;;;;340.27;321.60;;;;;;;;;;5034729;28;20460;-62
2021/10/30 06:36:28;;;;;;;360.87;343.27;;;;;;;;;;5040658;28;20815;-62
2021/10/30 06:38:55;;;;;;;326.07;310.93;;;;;;;;;;5034561;28;20483;-62
2021/10/30 06:41:23;;;;;;;294.23;281.00;;;;;;;;;;5037831;28;20454;-63
2021/10/30 06:43:50;;;;;;;256.33;245.20;;;;;;;;;;5053615;28;20452;-62
2021/10/30 06:46:17;;;;;;;205.53;196.37;;;;;;;;;;5053460;28;20483;-62
2021/10/30 06:48:47;;;;;;;172.27;164.00;;;;;;;;;;5053781;28;20490;-64
2021/10/30 06:51:15;;;;;;;150.30;143.20;;;;;;;;;;5053403;28;20455;-64
2021/10/30 06:53:42;;;;;;;127.60;121.30;;;;;;;;;;5053989;28;20944;-62
2021/10/30 06:56:10;;;;;;;125.17;118.87;;;;;;;;;;5052731;28;20938;-64
2021/10/30 06:58:37;;;;;;;117.83;111.83;;;;;;;;;;5053632;28;20490;-62
2021/10/30 07:01:04;;;;;;;105.30;99.90;;;;;;;;;;5062887;22;20499;-68
2021/10/30 07:03:31;;;;;;;90.07;85.07;;;;;;;;;;5029531;28;20457;-68
2021/10/30 07:05:59;;;;;;;84.13;79.33;;;;;;;;;;5033121;28;21027;-68
2021/10/30 07:08:26;;;;;;;79.37;74.87;;;;;;;;;;5030780;28;20461;-68
2021/10/30 07:10:54;;;;;;;106.10;101.20;;;;;;;;;;5029217;28;20456;-68
2021/10/30 07:13:21;;;;;;;78.50;74.43;;;;;;;;;;5030294;28;20981;-67
2021/10/30 07:15:48;;;;;;;75.90;72.00;;;;;;;;;;5019524;28;20451;-68
2021/10/30 07:18:15;;;;;;;73.67;69.97;;;;;;;;;;5025104;28;20456;-67
2021/10/30 07:20:42;;;;;;;56.83;53.33;;;;;;;;;;5020696;28;20578;-68
2021/10/30 07:23:11;;;;;;;63.83;60.40;;;;;;;;;;5034027;28;20868;-71
2021/10/30 07:25:40;;;;;;;50.27;47.47;;;;;;;;;;5032554;28;20491;-68
2021/10/30 07:28:07;;;;;;;48.23;45.23;;;;;;;;;;5031850;28;20507;-68
2021/10/30 07:30:34;;;;;;;47.43;44.83;;;;;;;;;;5032516;28;20484;-68
2021/10/30 07:33:01;;;;;;;45.97;43.27;;;;;;;;;;5033323;28;20481;-67
2021/10/30 07:35:29;;;;;;;43.53;41.13;;;;;;;;;;5023322;28;20449;-68
2021/10/30 07:37:58;;;;;;;44.30;41.63;;;;;;;;;;5033409;28;20468;-67
2021/10/30 07:40:28;;;;;;;45.50;43.00;;;;;;;;;;5034064;28;20471;-66
2021/10/30 07:42:55;;;;;;;41.87;39.57;;;;;;;;;;5029064;28;20535;-67
2021/10/30 07:45:22;;;;;;;37.77;35.57;;;;;;;;;;5032038;28;20494;-67
2021/10/30 07:47:50;;;;;;;39.03;36.80;;;;;;;;;;5032710;28;20951;-67
2021/10/30 07:50:17;;;;;;;36.40;34.20;;;;;;;;;;5033405;28;20455;-66
2021/10/30 07:52:44;;;;;;;35.53;33.30;;;;;;;;;;5033144;28;20481;-69
2021/10/30 07:55:11;;;;;;;35.10;33.00;;;;;;;;;;5029127;28;20457;-67
2021/10/30 07:57:40;;;;;;;34.83;32.40;;;;;;;;;;5013227;28;20450;-67
2021/10/30 08:00:08;;;;;;;32.80;30.80;;;;;;;;;;5023439;28;20456;-67
2021/10/30 08:02:35;;;;;;;32.77;30.77;;;;;;;;;;5029430;28;20482;-68
2021/10/30 08:05:02;;;;;;;31.40;29.40;;;;;;;;;;5023357;28;20488;-67
2021/10/30 08:07:29;;;;;;;30.03;28.23;;;;;;;;;;5032069;28;20444;-67
2021/10/30 08:09:56;;;;;;;30.57;28.67;;;;;;;;;;5018249;28;20471;-67
2021/10/30 08:12:23;;;;;;;29.13;27.33;;;;;;;;;;5020486;28;20468;-67
2021/10/30 08:14:52;;;;;;;30.37;28.60;;;;;;;;;;5030515;28;20456;-66
2021/10/30 08:17:19;;;;;;;29.73;27.93;;;;;;;;;;5028782;28;20811;-67
2021/10/30 08:19:46;;;;;;;29.13;27.17;;;;;;;;;;5027326;28;20556;-67
2021/10/30 08:22:13;;;;;;;32.83;30.50;;;;;;;;;;5026650;28;20474;-65
2021/10/30 08:24:40;;;;;;;31.80;29.40;;;;;;;;;;5039632;28;20475;-64
2021/10/30 08:27:07;;;;;;;31.30;29.30;;;;;;;;;;5032139;28;20459;-65
2021/10/30 08:29:34;;;;;;;33.23;30.73;;;;;;;;;;5031815;28;20445;-65
2021/10/30 08:32:03;;;;;;;33.77;31.43;;;;;;;;;;5031673;28;20473;-64
2021/10/30 08:34:31;;;;;;;31.97;29.87;;;;;;;;;;5027662;28;20543;-64
2021/10/30 08:36:58;;;;;;;32.20;30.07;;;;;;;;;;5031614;28;20476;-64
2021/10/30 08:39:25;;;;;;;31.03;28.93;;;;;;;;;;5032118;28;20449;-65
2021/10/30 08:41:52;;;;;;;35.40;32.60;;;;;;;;;;5031610;28;20468;-65
2021/10/30 08:44:20;;;;;;;33.63;30.80;;;;;;;;;;5031651;28;20475;-65
2021/10/30 08:46:47;;;;;;;29.30;27.23;;;;;;;;;;5012109;28;20481;-65
2021/10/30 08:49:15;;;;;;;31.90;29.10;;;;;;;;;;5025370;28;20455;-68
2021/10/30 08:51:42;;;;;;;32.47;29.83;;;;;;;;;;5019034;28;20468;-68
2021/10/30 08:54:09;;;;;;;31.53;29.10;;;;;;;;;;5029605;28;20460;-67
2021/10/30 08:56:38;;;;;;;33.50;31.37;;;;;;;;;;5029565;28;20465;-68
2021/10/30 08:59:05;;;;;;;33.10;31.17;;;;;;;;;;5025738;28;20495;-68
2021/10/30 09:01:42;;;;;;;34.00;31.93;;;;;;;;;;5031516;28;20477;-68
2021/10/30 09:04:12;;;;;;;34.60;32.40;;;;;;;;;;5029955;28;20452;-67
2021/10/30 09:06:43;;;;;;;32.73;30.90;;;;;;;;;;5020278;28;21013;-67
2021/10/30 09:09:13;;;;;;;33.10;31.20;;;;;;;;;;5032278;28;20437;-67
2021/10/30 09:11:41;;;;;;;33.40;31.50;;;;;;;;;;5019069;28;20842;-68
2021/10/30 09:14:17;;;;;;;32.17;30.30;;;;;;;;;;5030626;28;20460;-68
2021/10/30 09:16:44;;;;;;;29.03;27.27;;;;;;;;;;5030470;28;20443;-67
2021/10/30 09:19:12;;;;;;;29.03;27.40;;;;;;;;;;5024269;28;20460;-66
2021/10/30 09:21:41;;;;;;;28.60;27.00;;;;;;;;;;5012110;28;20505;-67
2021/10/30 09:24:14;;;;;;;32.10;30.20;;;;;;;;;;5023888;28;20548;-67
2021/10/30 09:26:41;;;;;;;27.17;25.57;;;;;;;;;;5030912;28;20534;-67
2021/10/30 09:29:09;;;;;;;30.80;28.90;;;;;;;;;;5031748;28;20504;-67
2021/10/30 09:31:36;;;;;;;27.70;26.00;;;;;;;;;;5031372;28;20476;-67
2021/10/30 09:34:04;;;;;;;29.57;27.77;;;;;;;;;;5017701;28;20833;-67
2021/10/30 09:36:32;;;;;;;29.50;27.70;;;;;;;;;;5029314;28;20823;-66
2021/10/30 09:39:02;;;;;;;31.10;29.30;;;;;;;;;;5031297;28;20452;-67
2021/10/30 09:41:31;;;;;;;28.23;26.53;;;;;;;;;;5031469;28;20547;-68
2021/10/30 09:43:59;;;;;;;28.30;26.80;;;;;;;;;;5031465;28;20452;-68
2021/10/30 09:46:27;;;;;;;29.47;27.77;;;;;;;;;;5031000;28;21085;-68
2021/10/30 09:48:55;;;;;;;28.43;26.83;;;;;;;;;;5031175;28;20449;-66
2021/10/30 09:51:30;;;;;;;29.57;27.83;;;;;;;;;;5016181;28;20482;-68
2021/10/30 09:53:57;;;;;;;26.03;24.63;;;;;;;;;;5011707;28;20448;-67
2021/10/30 09:56:36;;;;;;;27.90;26.30;;;;;;;;;;5027369;28;20464;-67
2021/10/30 09:59:04;;;;;;;27.87;26.27;;;;;;;;;;5031000;28;20451;-68
2021/10/30 10:01:32;;;;;;;28.23;26.73;;;;;;;;;;5031352;28;20488;-68
2021/10/30 10:04:00;;;;;;;29.13;27.63;;;;;;;;;;5030695;28;20453;-68
2021/10/30 10:06:28;;;;;;;28.30;26.70;;;;;;;;;;5030946;28;20477;-68
2021/10/30 10:08:55;;;;;;;25.40;24.00;;;;;;;;;;5030982;28;20457;-67
2021/10/30 10:11:23;;;;;;;31.53;29.93;;;;;;;;;;5031066;28;20464;-68
2021/10/30 10:13:52;;;;;;;31.73;30.03;;;;;;;;;;5030500;28;20460;-68
2021/10/30 10:16:19;;;;;;;25.70;24.30;;;;;;;;;;5030770;28;20449;-67
2021/10/30 10:18:47;;;;;;;25.87;24.37;;;;;;;;;;5031172;28;20461;-68
2021/10/30 10:21:15;;;;;;;24.93;23.63;;;;;;;;;;5031170;28;20809;-68
2021/10/30 10:23:43;;;;;;;26.30;24.80;;;;;;;;;;5034387;28;20456;-68
2021/10/30 10:26:10;;;;;;;25.87;24.37;;;;;;;;;;5034010;28;20491;-68
2021/10/30 10:28:38;;;;;;;25.20;23.80;;;;;;;;;;5029801;28;20472;-68
2021/10/30 10:31:12;;;;;;;26.10;24.40;;;;;;;;;;5032655;28;20648;-68
2021/10/30 10:33:40;;;;;;;24.17;22.77;;;;;;;;;;5034933;28;20433;-67
2021/10/30 10:36:26;;;;;;;28.50;27.00;;;;;;;;;;5034282;28;20598;-66
2021/10/30 10:39:12;;;;;;;28.10;26.60;;;;;;;;;;5034327;28;20459;-66
2021/10/30 10:42:01;;;;;;;28.33;26.63;;;;;;;;;;5034877;28;20856;-67
2021/10/30 10:44:55;;;;;;;29.27;27.50;;;;;;;;;;5030386;28;20452;-66
2021/10/30 10:47:43;;;;;;;28.63;27.03;;;;;;;;;;4969511;28;20498;-66
2021/10/30 10:50:15;;;;;;;28.20;26.60;;;;;;;;;;5034447;28;20955;-65
2021/10/30 10:52:44;;;;;;;29.00;27.40;;;;;;;;;;5032598;28;20515;-66
2021/10/30 10:55:11;;;;;;;28.37;26.77;;;;;;;;;;5033829;28;20871;-67
2021/10/30 10:57:46;;;;;;;30.87;28.77;;;;;;;;;;5034237;28;20453;-66
2021/10/30 11:00:14;;;;;;;31.40;29.60;;;;;;;;;;5033855;28;20494;-66
2021/10/30 11:02:43;;;;;;;31.60;29.20;;;;;;;;;;5031964;28;20855;-66
2021/10/30 11:05:26;;;;;;;31.70;29.90;;;;;;;;;;5025308;28;20454;-64
2021/10/30 11:08:23;;;;;;;34.47;32.43;;;;;;;;;;5015413;28;20473;-65
2021/10/30 11:11:08;;;;;;;36.17;34.07;;;;;;;;;;5014462;28;20448;-66
2021/10/30 11:13:35;;;;;;;39.77;37.53;;;;;;;;;;5014774;28;20430;-66
2021/10/30 11:16:04;;;;;;;42.57;40.27;;;;;;;;;;5014063;28;20540;-66
2021/10/30 11:18:32;;;;;;;46.50;43.90;;;;;;;;;;5030025;28;20449;-65
2021/10/30 11:21:14;;;;;;;50.20;47.57;;;;;;;;;;5033732;28;20475;-66
2021/10/30 11:23:43;;;;;;;50.53;47.63;;;;;;;;;;5034112;28;20520;-66
2021/10/30 11:26:12;;;;;;;55.00;52.00;;;;;;;;;;5033492;28;20495;-65
2021/10/30 11:28:39;;;;;;;61.50;58.20;;;;;;;;;;5033856;28;20974;-65
2021/10/30 11:31:12;;;;;;;58.33;55.13;;;;;;;;;;5032557;28;20468;-65
2021/10/30 11:33:39;;;;;;;57.40;54.50;;;;;;;;;;5033593;28;20459;-65
2021/10/30 11:36:07;;;;;;;57.87;54.87;;;;;;;;;;5033029;28;20452;-66
2021/10/30 11:38:36;;;;;;;58.10;55.10;;;;;;;;;;5033642;28;20448;-65
2021/10/30 11:41:04;;;;;;;57.07;54.07;;;;;;;;;;5033693;28;20484;-65
2021/10/30 11:43:34;;;;;;;57.20;54.17;;;;;;;;;;5033092;28;20824;-66
2021/10/30 11:46:01;;;;;;;60.27;56.87;;;;;;;;;;5033243;28;20514;-65
2021/10/30 11:48:38;;;;;;;67.70;63.80;;;;;;;;;;5025250;28;20829;-65
2021/10/30 11:51:07;;;;;;;72.23;68.63;;;;;;;;;;5013808;28;20480;-65
2021/10/30 11:53:34;;;;;;;70.50;66.70;;;;;;;;;;5013066;28;20839;-65
2021/10/30 11:56:07;;;;;;;62.97;59.10;;;;;;;;;;5013077;28;20449;-65
2021/10/30 11:58:36;;;;;;;76.47;72.67;;;;;;;;;;5013436;28;20437;-66
2021/10/30 12:01:18;;;;;;;91.87;87.47;;;;;;;;;;5013300;28;20583;-65
2021/10/30 12:03:45;;;;;;;110.73;105.60;;;;;;;;;;5013106;28;20445;-65
2021/10/30 12:06:12;;;;;;;116.20;110.80;;;;;;;;;;5032496;28;20481;-65
2021/10/30 12:08:39;;;;;;;128.87;123.07;;;;;;;;;;5032922;28;20448;-65
2021/10/30 12:11:06;;;;;;;143.80;137.20;;;;;;;;;;5033117;28;20468;-64
2021/10/30 12:13:34;;;;;;;170.27;162.87;;;;;;;;;;5032761;28;20531;-65
2021/10/30 12:16:03;;;;;;;189.13;180.83;;;;;;;;;;5032610;28;20447;-64
2021/10/30 12:18:31;;;;;;;201.50;192.90;;;;;;;;;;5032851;28;20829;-64
2021/10/30 12:20:58;;;;;;;216.37;207.37;;;;;;;;;;5032534;28;20457;-64
2021/10/30 12:23:27;;;;;;;228.50;219.10;;;;;;;;;;5032363;28;20932;-65
2021/10/30 12:26:01;;;;;;;242.73;232.83;;;;;;;;;;5032134;28;20449;-64
2021/10/30 12:28:33;;;;;;;258.57;248.07;;;;;;;;;;5032626;28;20424;-64
2021/10/30 12:31:00;;;;;;;266.70;255.43;;;;;;;;;;5032493;28;20453;-64
2021/10/30 12:33:33;;;;;;;263.37;251.77;;;;;;;;;;5032268;28;20460;-64
2021/10/30 12:36:00;;;;;;;271.97;260.40;;;;;;;;;;5032504;28;20836;-64
2021/10/30 12:38:27;;;;;;;282.77;270.47;;;;;;;;;;5033270;28;20455;-64
2021/10/30 12:40:56;;;;;;;277.50;265.30;;;;;;;;;;5032650;28;20532;-64
2021/10/30 12:43:26;;;;;;;296.93;284.23;;;;;;;;;;5032399;28;20456;-63
2021/10/30 12:45:57;;;;;;;281.10;268.60;;;;;;;;;;5031267;28;20536;-64
2021/10/30 12:48:25;;;;;;;280.80;268.80;;;;;;;;;;5032772;28;21014;-64
2021/10/30 12:50:58;;;;;;;278.80;266.90;;;;;;;;;;5031926;28;20456;-65
2021/10/30 12:53:30;;;;;;;271.90;260.13;;;;;;;;;;5032214;28;20432;-65
2021/10/30 12:56:05;;;;;;;266.87;255.57;;;;;;;;;;5031345;28;20456;-64
2021/10/30 12:58:35;;;;;;;248.77;238.00;;;;;;;;;;5032112;28;20535;-64
2021/10/30 13:01:02;;;;;;;191.93;183.40;;;;;;;;;;5031739;28;20480;-64
2021/10/30 13:03:32;;;;;;;146.17;139.47;;;;;;;;;;5087029;22;20478;-65
2021/10/30 13:06:01;;;;;;;130.90;124.60;;;;;;;;;;5072766;28;20447;-64
2021/10/30 13:08:29;;;;;;;113.63;108.27;;;;;;;;;;5072225;28;20493;-64
2021/10/30 13:10:57;;;;;;;96.13;91.27;;;;;;;;;;5071503;28;20466;-64
2021/10/30 13:13:24;;;;;;;107.00;101.80;;;;;;;;;;5059110;28;20537;-63
2021/10/30 13:15:51;;;;;;;120.57;114.93;;;;;;;;;;5051620;28;20538;-63
2021/10/30 13:18:18;;;;;;;131.60;125.50;;;;;;;;;;5051320;28;20841;-63
2021/10/30 13:20:45;;;;;;;130.73;124.53;;;;;;;;;;5051590;28;20452;-63
2021/10/30 13:23:14;;;;;;;147.00;140.13;;;;;;;;;;5051938;28;20482;-63
2021/10/30 13:25:41;;;;;;;153.90;147.00;;;;;;;;;;5051317;28;20454;-63
2021/10/30 13:28:08;;;;;;;156.10;149.10;;;;;;;;;;5051635;28;20509;-63
2021/10/30 13:30:36;;;;;;;164.33;156.87;;;;;;;;;;5051456;28;20946;-64
2021/10/30 13:33:05;;;;;;;179.90;171.90;;;;;;;;;;5040553;28;20475;-62
2021/10/30 13:35:35;;;;;;;182.07;173.77;;;;;;;;;;5042325;28;20463;-66
2021/10/30 13:38:02;;;;;;;178.83;170.40;;;;;;;;;;5052553;28;20531;-63
2021/10/30 13:40:31;;;;;;;187.70;179.30;;;;;;;;;;5052363;28;20417;-65
2021/10/30 13:42:58;;;;;;;184.80;176.50;;;;;;;;;;5051548;28;20567;-62
2021/10/30 13:45:26;;;;;;;187.33;179.03;;;;;;;;;;5059635;28;20465;-62
2021/10/30 13:47:53;;;;;;;202.17;193.30;;;;;;;;;;5056858;28;20576;-63
2021/10/30 13:50:22;;;;;;;202.80;194.10;;;;;;;;;;5051399;28;20452;-63
2021/10/30 13:52:49;;;;;;;212.50;203.20;;;;;;;;;;5051010;28;20566;-62
2021/10/30 13:55:18;;;;;;;213.00;203.40;;;;;;;;;;5050311;28;20460;-63
2021/10/30 13:57:46;;;;;;;222.80;213.17;;;;;;;;;;5054869;28;20447;-64
2021/10/30 14:00:14;;;;;;;222.60;212.87;;;;;;;;;;5055366;28;20448;-62
2021/10/30 14:02:41;;;;;;;249.90;239.33;;;;;;;;;;5055136;28;20475;-62
2021/10/30 14:05:09;;;;;;;229.70;219.77;;;;;;;;;;5054802;28;20495;-65
2021/10/30 14:07:36;;;;;;;237.73;227.63;;;;;;;;;;5049532;28;20480;-65